Time;durP1;ratioP1;P1;durP2;ratioP2;P2;SDS_P1;SDS_P2;PMS_P1;PMS_P2;Temp;Humidity;BMP_temperature;BMP_pressure;BME280_temperature;BME280_humidity;BME280_pressure;Samples;Min_cycle;Max_cycle;Signal;HPM_P1;HPM_P2
2024/04/08 00:02:01;;;;;;;5.13;2.67;;;14.60;99.90;;;;;;6220173;23;20154;-75
2024/04/08 00:04:26;;;;;;;4.57;2.40;;;14.30;99.90;;;;;;6218794;23;20678;-75
2024/04/08 00:06:52;;;;;;;8.63;2.70;;;14.00;99.90;;;;;;6218505;23;20174;-76
2024/04/08 00:09:17;;;;;;;5.67;2.30;;;13.90;99.90;;;;;;6219300;23;20134;-76
2024/04/08 00:11:43;;;;;;;5.57;2.73;;;13.70;99.90;;;;;;6218360;23;20153;-75
2024/04/08 00:14:09;;;;;;;9.73;2.80;;;13.60;99.90;;;;;;6190945;23;20145;-75
2024/04/08 00:16:34;;;;;;;5.60;2.80;;;13.50;99.90;;;;;;6216190;23;20168;-74
2024/04/08 00:19:00;;;;;;;7.23;3.30;;;13.40;99.90;;;;;;6217669;23;20221;-77
2024/04/08 00:21:26;;;;;;;4.40;2.60;;;13.40;99.90;;;;;;6219185;23;20380;-74
2024/04/08 00:23:51;;;;;;;6.37;3.10;;;13.30;99.90;;;;;;6218924;23;20190;-75
2024/04/08 00:26:17;;;;;;;7.10;3.53;;;13.30;99.90;;;;;;6217281;23;20162;-76
2024/04/08 00:28:43;;;;;;;6.07;3.10;;;13.20;99.90;;;;;;6217515;23;20496;-76
2024/04/08 00:31:10;;;;;;;9.40;4.63;;;13.10;99.90;;;;;;6191287;23;20662;-75
2024/04/08 00:33:36;;;;;;;4.20;3.23;;;13.10;99.90;;;;;;6217333;23;20193;-75
2024/04/08 00:36:06;;;;;;;9.37;3.47;;;13.00;99.90;;;;;;6190320;23;20403;-75
2024/04/08 00:38:32;;;;;;;6.80;3.70;;;13.00;99.90;;;;;;6217839;23;20435;-75
2024/04/08 00:40:58;;;;;;;6.07;3.40;;;13.00;99.90;;;;;;6227665;23;20371;-75
2024/04/08 00:43:24;;;;;;;11.83;4.77;;;13.00;99.90;;;;;;6218159;23;20135;-76
2024/04/08 00:45:50;;;;;;;7.63;4.00;;;12.90;99.90;;;;;;6217435;23;20384;-75
2024/04/08 00:48:17;;;;;;;8.53;4.47;;;12.90;99.90;;;;;;6218090;23;20190;-76
2024/04/08 00:50:45;;;;;;;7.33;3.87;;;13.00;99.90;;;;;;6217315;23;20352;-75
2024/04/08 00:53:12;;;;;;;7.03;5.20;;;13.10;99.90;;;;;;6190877;23;20377;-76
2024/04/08 00:55:39;;;;;;;10.07;4.87;;;13.10;99.90;;;;;;6190477;23;20754;-77
2024/04/08 00:58:05;;;;;;;7.40;4.70;;;13.10;99.90;;;;;;6217437;23;20404;-76
2024/04/08 01:00:31;;;;;;;7.73;4.50;;;13.10;99.90;;;;;;6217252;23;20381;-75
2024/04/08 01:02:58;;;;;;;6.53;4.60;;;13.00;99.90;;;;;;6191194;23;20372;-75
2024/04/08 01:05:26;;;;;;;8.50;3.80;;;13.00;99.90;;;;;;6216094;23;20190;-75
2024/04/08 01:07:52;;;;;;;9.00;4.53;;;13.00;99.90;;;;;;6216880;23;20687;-75
2024/04/08 01:10:18;;;;;;;10.90;4.80;;;13.00;99.90;;;;;;6217058;23;20359;-76
2024/04/08 01:12:43;;;;;;;9.70;4.73;;;12.90;99.90;;;;;;6217406;23;20130;-76
2024/04/08 01:15:09;;;;;;;5.90;3.70;;;12.90;99.90;;;;;;6217449;23;20462;-75
2024/04/08 01:17:35;;;;;;;10.90;5.40;;;12.80;99.90;;;;;;6190723;23;20247;-76
2024/04/08 01:20:01;;;;;;;8.80;3.97;;;12.90;99.90;;;;;;6215468;23;20210;-76
2024/04/08 01:22:30;;;;;;;7.57;4.20;;;12.80;99.90;;;;;;6217174;23;20144;-75
2024/04/08 01:24:57;;;;;;;8.40;4.67;;;12.80;99.90;;;;;;6216638;23;20578;-75
2024/04/08 01:27:23;;;;;;;11.93;5.77;;;12.70;99.90;;;;;;6216909;23;20407;-75
2024/04/08 01:29:48;;;;;;;8.43;5.23;;;12.70;99.90;;;;;;6216972;23;20380;-75
2024/04/08 01:32:14;;;;;;;9.03;5.80;;;12.70;99.90;;;;;;6217115;23;20141;-74
2024/04/08 01:34:40;;;;;;;7.53;5.20;;;12.70;99.90;;;;;;6216574;23;20138;-74
2024/04/08 01:37:05;;;;;;;10.33;6.30;;;12.60;99.90;;;;;;6217226;23;20580;-75
2024/04/08 01:39:31;;;;;;;8.60;5.83;;;12.60;99.90;;;;;;6216928;23;20196;-75
2024/04/08 01:41:56;;;;;;;11.23;6.90;;;12.60;99.90;;;;;;6217144;23;20173;-74
2024/04/08 01:44:22;;;;;;;11.90;6.77;;;12.50;99.90;;;;;;6190188;23;20260;-75
2024/04/08 01:46:47;;;;;;;8.03;6.10;;;12.50;99.90;;;;;;6216521;23;20173;-75
2024/04/08 01:49:13;;;;;;;11.87;7.07;;;12.50;99.90;;;;;;6216236;23;20138;-74
2024/04/08 01:51:39;;;;;;;13.83;6.83;;;12.40;99.90;;;;;;6190276;23;20138;-75
2024/04/08 01:54:05;;;;;;;11.00;6.27;;;12.40;99.90;;;;;;6216691;23;20130;-74
2024/04/08 01:56:31;;;;;;;8.70;6.60;;;12.40;99.90;;;;;;6216713;23;20207;-74
2024/04/08 01:58:57;;;;;;;7.77;6.00;;;12.40;99.90;;;;;;6217029;23;20611;-75
2024/04/08 02:01:23;;;;;;;9.20;5.90;;;12.40;99.90;;;;;;6216115;23;20375;-75
2024/04/08 02:03:48;;;;;;;10.10;5.70;;;12.40;99.90;;;;;;6217194;23;20516;-75
2024/04/08 02:06:14;;;;;;;11.80;6.87;;;12.50;99.90;;;;;;6216136;23;20218;-75
2024/04/08 02:08:39;;;;;;;12.40;7.10;;;12.40;99.90;;;;;;6218860;23;20144;-75
2024/04/08 02:11:05;;;;;;;8.40;5.47;;;12.50;99.90;;;;;;6216018;23;20154;-77
2024/04/08 02:13:31;;;;;;;8.90;5.90;;;12.40;99.90;;;;;;6216459;23;20132;-75
2024/04/08 02:15:56;;;;;;;17.67;7.30;;;12.40;99.90;;;;;;6216637;23;20431;-75
2024/04/08 02:18:22;;;;;;;10.37;6.97;;;12.40;99.90;;;;;;6216824;23;20428;-74
2024/04/08 02:20:47;;;;;;;12.27;7.57;;;12.30;99.90;;;;;;6215956;23;20141;-74
2024/04/08 02:23:13;;;;;;;11.97;7.20;;;12.30;99.90;;;;;;6216182;23;20140;-75
2024/04/08 02:25:45;;;;;;;11.33;6.37;;;12.30;99.90;;;;;;6215892;23;20130;-75
2024/04/08 02:28:11;;;;;;;7.87;5.63;;;12.40;99.90;;;;;;6216302;23;20165;-75
2024/04/08 02:30:38;;;;;;;9.50;5.97;;;12.40;99.90;;;;;;6216131;23;20381;-74
2024/04/08 02:33:05;;;;;;;12.33;6.87;;;12.40;99.90;;;;;;6189577;23;20650;-74
2024/04/08 02:35:35;;;;;;;8.10;5.40;;;12.40;99.90;;;;;;6215266;23;20451;-74
2024/04/08 02:38:04;;;;;;;8.13;5.47;;;12.40;99.90;;;;;;6215754;23;20894;-75
2024/04/08 02:40:32;;;;;;;11.83;7.13;;;12.40;99.90;;;;;;6216290;23;20377;-75
2024/04/08 02:42:58;;;;;;;9.33;6.30;;;12.40;99.90;;;;;;6216222;23;20433;-75
2024/04/08 02:45:24;;;;;;;6.17;4.93;;;12.40;99.90;;;;;;6215769;23;20365;-74
2024/04/08 02:47:49;;;;;;;9.40;4.70;;;12.40;99.90;;;;;;6216006;23;20474;-75
2024/04/08 02:50:15;;;;;;;4.73;4.30;;;12.40;99.90;;;;;;6215572;23;20138;-73
2024/04/08 02:52:40;;;;;;;7.83;5.40;;;12.30;99.90;;;;;;6216187;23;20161;-75
2024/04/08 02:55:06;;;;;;;9.30;4.93;;;12.30;99.90;;;;;;6215114;23;20506;-75
2024/04/08 02:57:31;;;;;;;6.70;4.63;;;12.30;99.90;;;;;;6189524;23;20165;-75
2024/04/08 02:59:57;;;;;;;10.70;5.97;;;12.30;99.90;;;;;;6216325;23;20148;-76
2024/04/08 03:02:22;;;;;;;11.73;7.33;;;12.30;99.90;;;;;;6216163;23;20148;-74
2024/04/08 03:04:51;;;;;;;10.30;7.27;;;12.30;99.90;;;;;;6215437;23;20535;-74
2024/04/08 03:07:16;;;;;;;12.90;8.73;;;12.30;99.90;;;;;;6215663;23;20181;-74
2024/04/08 03:09:42;;;;;;;7.93;6.43;;;12.30;99.90;;;;;;6215696;23;20489;-74
2024/04/08 03:12:08;;;;;;;12.73;6.77;;;12.30;99.90;;;;;;6215747;23;20141;-76
2024/04/08 03:14:33;;;;;;;8.27;6.37;;;12.30;99.90;;;;;;6215507;23;20212;-75
2024/04/08 03:16:59;;;;;;;10.47;7.00;;;12.30;99.90;;;;;;6216446;23;20166;-75
2024/04/08 03:19:24;;;;;;;9.10;6.53;;;12.30;99.90;;;;;;6217535;23;20559;-75
2024/04/08 03:21:50;;;;;;;10.20;6.93;;;12.30;99.90;;;;;;6219512;23;20148;-75
2024/04/08 03:24:15;;;;;;;9.67;6.80;;;12.30;99.90;;;;;;6218786;23;20194;-76
2024/04/08 03:26:41;;;;;;;13.50;6.60;;;12.30;99.90;;;;;;6193925;23;20188;-75
2024/04/08 03:29:06;;;;;;;8.90;6.70;;;12.20;99.90;;;;;;6220352;23;20132;-75
2024/04/08 03:31:32;;;;;;;8.33;6.37;;;12.20;99.90;;;;;;6218494;23;20223;-74
2024/04/08 03:33:58;;;;;;;13.43;7.63;;;12.20;99.90;;;;;;6218761;23;20199;-75
2024/04/08 03:36:23;;;;;;;9.00;6.83;;;12.20;99.90;;;;;;6218555;23;20216;-75
2024/04/08 03:38:49;;;;;;;10.33;7.10;;;12.20;99.90;;;;;;6219116;23;20572;-76
2024/04/08 03:41:14;;;;;;;11.77;7.13;;;12.20;99.90;;;;;;6220209;23;20197;-73
2024/04/08 03:43:40;;;;;;;11.03;8.27;;;12.10;99.90;;;;;;6222169;23;20400;-75
2024/04/08 03:46:06;;;;;;;10.63;8.53;;;12.10;99.90;;;;;;6219235;23;20566;-76
2024/04/08 03:48:31;;;;;;;14.23;9.07;;;12.10;99.90;;;;;;6218507;23;20174;-74
2024/04/08 03:51:09;;;;;;;11.07;8.67;;;12.10;99.90;;;;;;6218648;23;20143;-74
2024/04/08 03:53:36;;;;;;;10.30;8.30;;;12.10;99.90;;;;;;6219252;23;20646;-74
2024/04/08 03:56:10;;;;;;;10.13;8.33;;;12.10;99.90;;;;;;6192753;23;20377;-75
2024/04/08 03:58:40;;;;;;;10.33;7.83;;;12.00;99.90;;;;;;6223852;23;20145;-75
2024/04/08 04:01:06;;;;;;;18.77;9.27;;;12.00;99.90;;;;;;6224983;23;20376;-75
2024/04/08 04:03:32;;;;;;;14.10;9.00;;;11.90;99.90;;;;;;6219596;23;20404;-74
2024/04/08 04:05:58;;;;;;;14.93;9.87;;;11.90;99.90;;;;;;6218418;23;20364;-77
2024/04/08 04:08:24;;;;;;;10.97;8.77;;;12.00;99.90;;;;;;6193313;23;20397;-76
2024/04/08 04:10:49;;;;;;;12.57;8.37;;;12.00;99.90;;;;;;6219653;23;20214;-76
2024/04/08 04:13:15;;;;;;;9.63;7.60;;;11.90;99.90;;;;;;6219163;23;20148;-76
2024/04/08 04:15:40;;;;;;;8.73;5.57;;;11.90;99.90;;;;;;6218662;23;20145;-75
2024/04/08 04:18:06;;;;;;;9.83;5.30;;;12.00;99.90;;;;;;6219549;23;20188;-75
2024/04/08 04:20:42;;;;;;;10.30;7.60;;;12.00;99.90;;;;;;6219227;23;20162;-75
2024/04/08 04:23:14;;;;;;;12.70;7.70;;;12.00;99.90;;;;;;6220258;23;20551;-75
2024/04/08 04:25:40;;;;;;;13.70;7.90;;;12.10;99.90;;;;;;6193703;23;20416;-75
2024/04/08 04:28:06;;;;;;;17.23;10.83;;;12.20;99.90;;;;;;6220803;23;20686;-75
2024/04/08 04:30:32;;;;;;;13.63;10.23;;;12.20;99.90;;;;;;6217135;23;20390;-75
2024/04/08 04:33:00;;;;;;;15.83;10.67;;;12.30;99.90;;;;;;6218760;23;20189;-75
2024/04/08 04:35:27;;;;;;;15.20;10.33;;;12.30;99.90;;;;;;6218198;23;20134;-75
2024/04/08 04:37:52;;;;;;;19.30;11.00;;;12.30;99.90;;;;;;6218508;23;20408;-76
2024/04/08 04:40:18;;;;;;;15.90;10.90;;;12.30;99.90;;;;;;6191261;23;20496;-75
2024/04/08 04:42:45;;;;;;;15.67;10.80;;;12.30;99.90;;;;;;6218739;23;20148;-75
2024/04/08 04:45:11;;;;;;;14.87;11.00;;;12.30;99.90;;;;;;6217495;23;20166;-75
2024/04/08 04:47:36;;;;;;;12.47;9.10;;;12.30;99.90;;;;;;6219874;23;20413;-77
2024/04/08 04:50:03;;;;;;;14.67;8.20;;;12.30;99.90;;;;;;6219512;23;20778;-77
2024/04/08 04:52:30;;;;;;;12.90;8.70;;;12.30;99.90;;;;;;6219913;23;20136;-77
2024/04/08 04:54:55;;;;;;;13.20;9.37;;;12.30;99.90;;;;;;6219136;23;20361;-75
2024/04/08 04:57:21;;;;;;;14.33;9.20;;;12.20;99.90;;;;;;6219716;23;20616;-76
2024/04/08 04:59:47;;;;;;;15.90;10.73;;;12.20;99.90;;;;;;6218322;23;20146;-75
2024/04/08 05:02:12;;;;;;;12.90;9.37;;;12.20;99.90;;;;;;6217751;23;20140;-75
2024/04/08 05:04:38;;;;;;;11.60;8.60;;;12.20;99.90;;;;;;6217773;23;20523;-75
2024/04/08 05:07:04;;;;;;;13.70;8.17;;;12.20;99.90;;;;;;6190296;23;20189;-76
2024/04/08 05:09:30;;;;;;;11.27;8.00;;;12.10;99.90;;;;;;6218328;23;20157;-75
2024/04/08 05:11:55;;;;;;;11.67;8.57;;;12.10;99.90;;;;;;6216830;23;20444;-75
2024/04/08 05:14:21;;;;;;;12.53;9.60;;;12.10;99.90;;;;;;6218955;23;20146;-75
2024/04/08 05:16:50;;;;;;;15.20;9.47;;;12.10;99.90;;;;;;6218245;23;20273;-76
2024/04/08 05:19:16;;;;;;;14.03;9.60;;;12.10;99.90;;;;;;6218280;23;20209;-74
2024/04/08 05:21:43;;;;;;;19.03;11.70;;;12.10;99.90;;;;;;6220080;23;20365;-76
2024/04/08 05:24:09;;;;;;;14.33;10.70;;;12.20;99.90;;;;;;6220086;23;20419;-75
2024/04/08 05:26:35;;;;;;;16.47;11.30;;;12.20;99.90;;;;;;6219914;23;20835;-75
2024/04/08 05:29:00;;;;;;;12.70;10.10;;;12.30;99.90;;;;;;6219289;23;20509;-76
2024/04/08 05:31:26;;;;;;;19.70;11.20;;;12.30;99.90;;;;;;6218763;23;20318;-78
2024/04/08 05:33:51;;;;;;;10.73;9.33;;;12.40;99.90;;;;;;6221694;23;20132;-76
2024/04/08 05:36:17;;;;;;;13.47;10.33;;;12.40;99.90;;;;;;6219190;23;20168;-76
2024/04/08 05:38:43;;;;;;;14.50;11.37;;;12.40;99.90;;;;;;6218830;23;20198;-77
2024/04/08 05:41:08;;;;;;;17.00;11.30;;;12.50;99.90;;;;;;6218471;23;20144;-77
2024/04/08 05:43:34;;;;;;;19.93;11.43;;;12.60;99.90;;;;;;6193234;23;20143;-77
2024/04/08 05:45:59;;;;;;;16.80;10.87;;;12.60;99.90;;;;;;6220794;23;20136;-78
2024/04/08 05:48:26;;;;;;;12.70;9.90;;;12.70;99.90;;;;;;6219003;23;20506;-75
2024/04/08 05:50:51;;;;;;;17.10;11.37;;;12.80;99.90;;;;;;6218662;23;20180;-78
2024/04/08 05:53:17;;;;;;;14.73;11.00;;;12.90;99.90;;;;;;6218719;23;20358;-77
2024/04/08 05:55:42;;;;;;;13.00;9.73;;;13.00;99.90;;;;;;6217940;23;20217;-76
2024/04/08 05:58:10;;;;;;;9.53;7.80;;;13.10;99.90;;;;;;6218004;23;20134;-76
2024/04/08 06:00:36;;;;;;;10.80;8.30;;;13.20;99.90;;;;;;6191581;23;20158;-75
2024/04/08 06:03:03;;;;;;;7.93;6.90;;;13.30;99.90;;;;;;6218009;23;20369;-77
2024/04/08 06:05:29;;;;;;;7.10;5.73;;;13.40;99.90;;;;;;6219415;23;20583;-79
2024/04/08 06:07:54;;;;;;;9.30;6.40;;;13.50;99.90;;;;;;6220606;23;20420;-79
2024/04/08 06:10:22;;;;;;;8.07;7.27;;;13.60;99.90;;;;;;6221277;23;20144;-78
2024/04/08 06:12:48;;;;;;;12.30;8.00;;;13.70;99.90;;;;;;6219170;23;20583;-77
2024/04/08 06:15:15;;;;;;;17.77;9.87;;;13.80;99.90;;;;;;6208541;23;20420;-80
2024/04/08 06:17:42;;;;;;;10.37;7.70;;;13.90;99.90;;;;;;6231709;23;20717;-76
2024/04/08 06:20:09;;;;;;;12.10;8.63;;;14.00;99.90;;;;;;6204514;23;20415;-76
2024/04/08 06:22:35;;;;;;;9.37;7.37;;;14.10;99.90;;;;;;6204952;23;20384;-77
2024/04/08 06:25:03;;;;;;;8.53;6.87;;;14.20;99.90;;;;;;6206259;23;20352;-77
2024/04/08 06:27:28;;;;;;;8.03;6.57;;;14.30;99.90;;;;;;6206265;23;20438;-77
2024/04/08 06:29:54;;;;;;;8.20;5.60;;;14.40;99.90;;;;;;6209234;23;20373;-76
2024/04/08 06:32:20;;;;;;;7.23;6.23;;;14.60;99.90;;;;;;6207747;23;20153;-79
2024/04/08 06:34:45;;;;;;;6.63;5.27;;;14.70;99.90;;;;;;6232147;23;20154;-78
2024/04/08 06:37:11;;;;;;;6.47;5.70;;;14.80;99.90;;;;;;6207227;23;20181;-77
2024/04/08 06:39:37;;;;;;;9.00;6.97;;;14.90;99.90;;;;;;6231861;23;20196;-77
2024/04/08 06:42:02;;;;;;;10.23;7.73;;;15.10;99.90;;;;;;6234432;23;20433;-78
2024/04/08 06:44:28;;;;;;;8.07;6.40;;;15.20;99.90;;;;;;6234262;23;20142;-78
2024/04/08 06:46:54;;;;;;;7.53;5.60;;;15.30;99.90;;;;;;6235981;23;20451;-78
2024/04/08 06:49:21;;;;;;;9.60;6.57;;;15.30;99.90;;;;;;6235159;23;20366;-77
2024/04/08 06:51:47;;;;;;;9.70;5.60;;;15.40;99.90;;;;;;6235299;23;20369;-79
2024/04/08 06:54:13;;;;;;;7.53;5.60;;;15.50;99.90;;;;;;6212020;23;20380;-78
2024/04/08 06:56:39;;;;;;;8.47;6.07;;;15.60;99.90;;;;;;6209329;23;20212;-78
2024/04/08 06:59:04;;;;;;;7.50;5.60;;;15.70;99.90;;;;;;6233252;23;20134;-78
2024/04/08 07:01:30;;;;;;;5.80;5.03;;;15.80;99.90;;;;;;6209877;23;20150;-76
2024/04/08 07:03:56;;;;;;;5.30;3.90;;;15.90;99.90;;;;;;6175391;23;20149;-76
2024/04/08 07:06:22;;;;;;;5.23;3.87;;;16.00;99.90;;;;;;6225794;23;20158;-74
2024/04/08 07:08:48;;;;;;;5.27;4.20;;;16.10;99.90;;;;;;6225147;23;20519;-75
2024/04/08 07:11:13;;;;;;;8.17;4.70;;;16.10;99.90;;;;;;6226865;23;20353;-75
2024/04/08 07:13:40;;;;;;;10.50;4.97;;;16.20;99.90;;;;;;6198573;23;20154;-74
2024/04/08 07:16:05;;;;;;;11.23;6.40;;;16.20;99.90;;;;;;6222654;23;20158;-73
2024/04/08 07:18:31;;;;;;;6.87;5.37;;;16.20;99.90;;;;;;6226096;23;20368;-73
2024/04/08 07:21:01;;;;;;;7.97;5.60;;;16.20;99.90;;;;;;6209975;23;20147;-76
2024/04/08 07:23:28;;;;;;;10.73;7.57;;;16.20;99.90;;;;;;6209116;23;20533;-77
2024/04/08 07:25:54;;;;;;;9.17;6.73;;;16.30;99.90;;;;;;6212109;23;20373;-79
2024/04/08 07:28:21;;;;;;;10.77;6.50;;;16.30;99.90;;;;;;6238622;23;20397;-80
2024/04/08 07:30:47;;;;;;;10.27;7.07;;;16.40;99.90;;;;;;6170638;23;20399;-79
2024/04/08 07:33:20;;;;;;;8.63;6.87;;;16.40;99.90;;;;;;6143854;23;20436;-77
2024/04/08 07:35:46;;;;;;;12.00;7.47;;;16.40;99.90;;;;;;6098877;23;20153;-80
2024/04/08 07:38:12;;;;;;;13.43;6.80;;;16.50;99.90;;;;;;6127220;23;20382;-78
2024/04/08 07:40:44;;;;;;;9.73;6.87;;;16.50;99.90;;;;;;6172753;23;20140;-79
2024/04/08 07:43:11;;;;;;;11.70;8.10;;;16.50;99.90;;;;;;6146761;23;20368;-76
2024/04/08 07:45:40;;;;;;;11.90;7.87;;;16.50;99.90;;;;;;6126914;23;20386;-78
2024/04/08 07:48:07;;;;;;;12.67;7.30;;;16.50;99.90;;;;;;6148419;23;20196;-78
2024/04/08 07:50:39;;;;;;;9.63;7.37;;;16.50;99.90;;;;;;6120397;23;20485;-79
2024/04/08 07:53:09;;;;;;;10.00;8.10;;;16.50;99.90;;;;;;6074868;23;20384;-78
2024/04/08 07:55:35;;;;;;;13.87;9.50;;;16.70;99.90;;;;;;6123980;23;20511;-78
2024/04/08 07:58:01;;;;;;;11.43;9.07;;;16.70;99.90;;;;;;6147610;23;20396;-78
2024/04/08 08:00:31;;;;;;;11.83;8.50;;;16.80;99.90;;;;;;6098523;23;20459;-80
2024/04/08 08:02:56;;;;;;;11.03;8.50;;;16.70;99.90;;;;;;6097551;23;20196;-79
2024/04/08 08:05:22;;;;;;;10.53;7.53;;;16.70;99.90;;;;;;6120524;23;20439;-78
2024/04/08 08:07:49;;;;;;;12.63;9.30;;;16.70;99.90;;;;;;6131396;23;20231;-76
2024/04/08 08:10:17;;;;;;;17.10;9.40;;;16.80;99.90;;;;;;6151085;23;20363;-78
2024/04/08 08:12:43;;;;;;;11.13;8.40;;;16.80;99.90;;;;;;6151425;23;20140;-78
2024/04/08 08:15:08;;;;;;;12.80;9.67;;;16.90;99.90;;;;;;6129046;23;20385;-78
2024/04/08 08:17:42;;;;;;;15.77;9.93;;;16.90;99.90;;;;;;6153038;23;20388;-80
2024/04/08 08:20:08;;;;;;;13.70;10.43;;;16.90;99.90;;;;;;6164135;23;20161;-76
2024/04/08 08:22:34;;;;;;;10.97;9.07;;;16.90;99.90;;;;;;6209989;23;20500;-78
2024/04/08 08:25:03;;;;;;;9.20;8.13;;;16.90;99.90;;;;;;6209934;23;20390;-78
2024/04/08 08:27:30;;;;;;;11.70;8.73;;;17.00;99.90;;;;;;6211458;23;20188;-79
2024/04/08 08:30:02;;;;;;;18.53;12.63;;;17.00;99.90;;;;;;6187031;23;20656;-79
2024/04/08 08:32:28;;;;;;;16.33;10.67;;;17.10;99.90;;;;;;6162767;23;20376;-77
2024/04/08 08:34:54;;;;;;;16.93;10.73;;;17.20;99.90;;;;;;6179745;23;20385;-77
2024/04/08 08:37:20;;;;;;;12.23;8.80;;;17.30;99.90;;;;;;6175652;23;20212;-77
2024/04/08 08:39:50;;;;;;;10.27;8.33;;;17.40;99.90;;;;;;6152592;23;20185;-76
2024/04/08 08:42:19;;;;;;;12.80;9.30;;;17.50;99.90;;;;;;6204757;23;20138;-77
2024/04/08 08:44:52;;;;;;;10.80;9.20;;;17.60;99.90;;;;;;6178057;23;20656;-76
2024/04/08 08:47:23;;;;;;;10.87;8.43;;;17.70;99.90;;;;;;6152298;23;20428;-76
2024/04/08 08:49:55;;;;;;;14.30;10.83;;;17.80;99.90;;;;;;6180366;23;20369;-79
2024/04/08 08:52:21;;;;;;;14.47;10.70;;;17.80;99.90;;;;;;6176173;23;20450;-77
2024/04/08 08:54:51;;;;;;;15.60;12.10;;;17.90;99.90;;;;;;6179910;23;20411;-78
2024/04/08 08:57:17;;;;;;;16.73;12.43;;;18.00;99.90;;;;;;6174572;23;20416;-79
2024/04/08 08:59:45;;;;;;;20.90;14.90;;;17.90;99.90;;;;;;6173354;23;20388;-78
2024/04/08 09:02:15;;;;;;;18.20;14.60;;;17.80;99.90;;;;;;6174343;23;20137;-80
2024/04/08 09:04:41;;;;;;;15.17;12.47;;;17.70;99.90;;;;;;6170045;23;20442;-77
2024/04/08 09:07:08;;;;;;;13.67;11.77;;;17.70;99.90;;;;;;6172353;23;20417;-78
2024/04/08 09:09:34;;;;;;;14.90;12.03;;;17.70;99.90;;;;;;6177403;23;20381;-77
2024/04/08 09:12:01;;;;;;;15.47;10.93;;;17.80;99.90;;;;;;6156590;23;20366;-76
2024/04/08 09:14:44;;;;;;;16.27;13.13;;;17.80;99.90;;;;;;6184190;23;20409;-78
2024/04/08 09:17:33;;;;;;;17.67;11.70;;;17.80;99.90;;;;;;6159354;23;20405;-80
2024/04/08 09:20:06;;;;;;;16.87;12.60;;;17.90;99.90;;;;;;6160139;23;20370;-78
2024/04/08 09:22:35;;;;;;;16.53;13.30;;;18.00;99.90;;;;;;6160620;23;20377;-79
2024/04/08 09:25:01;;;;;;;12.40;10.63;;;18.10;99.90;;;;;;6186606;23;20409;-79
2024/04/08 09:27:27;;;;;;;12.27;10.50;;;18.00;99.90;;;;;;6185695;23;20401;-79
2024/04/08 09:29:53;;;;;;;14.37;11.47;;;18.20;99.90;;;;;;6162743;23;20389;-78
2024/04/08 09:32:19;;;;;;;15.47;11.10;;;18.30;99.90;;;;;;6186954;23;20374;-79
2024/04/08 09:34:46;;;;;;;15.60;12.70;;;18.30;99.90;;;;;;6208495;23;20150;-78
2024/04/08 09:37:13;;;;;;;15.70;11.33;;;18.40;99.90;;;;;;6208024;23;20404;-78
2024/04/08 09:39:40;;;;;;;15.30;13.03;;;18.50;99.90;;;;;;6176481;23;20208;-80
2024/04/08 09:42:15;;;;;;;11.87;10.63;;;18.70;99.90;;;;;;6209740;23;20376;-79
2024/04/08 09:44:43;;;;;;;17.53;11.43;;;18.70;99.90;;;;;;6230307;23;20374;-77
2024/04/08 09:47:11;;;;;;;12.50;9.60;;;18.80;99.90;;;;;;6204592;23;20396;-78
2024/04/08 09:49:41;;;;;;;16.00;12.70;;;18.90;99.90;;;;;;6181596;23;20430;-78
2024/04/08 09:52:11;;;;;;;11.90;9.33;;;19.10;99.90;;;;;;6206242;23;20384;-78
2024/04/08 09:54:37;;;;;;;14.83;10.83;;;19.20;99.90;;;;;;6207003;23;20377;-80
2024/04/08 09:57:08;;;;;;;13.07;10.73;;;19.30;99.90;;;;;;6212239;23;20395;-81
2024/04/08 09:59:57;;;;;;;12.23;10.57;;;19.40;99.90;;;;;;6211990;23;20351;-80
2024/04/08 10:02:40;;;;;;;13.03;10.07;;;19.40;99.90;;;;;;6213601;23;20374;-83
2024/04/08 10:05:07;;;;;;;10.53;9.33;;;19.50;99.90;;;;;;6231530;23;20359;-81
2024/04/08 10:07:35;;;;;;;18.53;12.00;;;19.60;99.90;;;;;;6232856;23;20420;-78
2024/04/08 10:10:05;;;;;;;14.33;11.00;;;19.70;99.90;;;;;;6211018;23;20359;-79
2024/04/08 10:12:32;;;;;;;11.63;9.43;;;19.70;99.90;;;;;;6236243;23;20394;-80
2024/04/08 10:15:11;;;;;;;11.50;8.57;;;19.70;99.90;;;;;;6233799;23;20417;-80
2024/04/08 10:17:57;;;;;;;12.10;8.80;;;19.80;99.90;;;;;;6208401;23;20405;-81
2024/04/08 10:20:27;;;;;;;14.13;10.50;;;20.00;99.90;;;;;;6211421;23;20410;-81
2024/04/08 10:22:54;;;;;;;13.13;10.80;;;20.10;99.90;;;;;;6211104;23;20350;-78
2024/04/08 10:25:43;;;;;;;11.03;8.20;;;20.00;99.90;;;;;;6211229;23;20373;-79
2024/04/08 10:28:19;;;;;;;11.83;9.37;;;20.10;99.90;;;;;;6211951;23;20422;-79
2024/04/08 10:30:51;;;;;;;12.73;8.70;;;20.20;99.90;;;;;;6211803;23;20365;-80
2024/04/08 10:33:18;;;;;;;9.20;7.57;;;20.10;99.90;;;;;;6208425;23;20382;-79
2024/04/08 10:35:48;;;;;;;6.77;5.80;;;20.20;99.90;;;;;;6208709;23;20394;-80
2024/04/08 10:38:17;;;;;;;11.00;9.10;;;20.30;99.90;;;;;;6207085;23;20349;-81
2024/04/08 10:40:43;;;;;;;9.40;7.50;;;20.50;99.90;;;;;;6158073;23;20405;-79
2024/04/08 10:43:26;;;;;;;12.50;9.27;;;20.60;99.90;;;;;;6184024;23;20397;-79
2024/04/08 10:45:54;;;;;;;9.83;7.00;;;20.70;99.90;;;;;;6119342;23;20463;-80
2024/04/08 10:48:21;;;;;;;8.60;6.30;;;20.70;99.90;;;;;;6117376;23;20470;-79
2024/04/08 10:50:51;;;;;;;9.30;7.13;;;20.80;99.90;;;;;;6094540;23;20388;-78
2024/04/08 10:53:17;;;;;;;9.97;7.30;;;20.90;99.80;;;;;;6071891;23;20356;-79
2024/04/08 10:55:44;;;;;;;11.63;8.00;;;21.00;99.10;;;;;;6094759;23;20353;-81
2024/04/08 10:58:14;;;;;;;11.40;6.13;;;21.00;98.20;;;;;;6119295;23;20380;-78
2024/04/08 11:00:40;;;;;;;6.40;5.70;;;21.10;98.30;;;;;;6118063;23;20377;-79
2024/04/08 11:03:08;;;;;;;9.70;6.83;;;21.30;97.90;;;;;;6119827;23;20380;-79
2024/04/08 11:05:38;;;;;;;16.20;8.30;;;21.40;96.80;;;;;;6122141;23;20334;-80
2024/04/08 11:08:06;;;;;;;12.23;6.90;;;21.60;95.40;;;;;;6099449;23;20942;-78
2024/04/08 11:10:33;;;;;;;11.60;7.83;;;21.60;95.00;;;;;;6125213;23;20539;-80
2024/04/08 11:13:01;;;;;;;7.63;6.33;;;21.60;93.30;;;;;;6099720;23;20368;-81
2024/04/08 11:15:47;;;;;;;9.33;7.60;;;21.50;93.90;;;;;;6146028;23;20486;-79
2024/04/08 11:18:12;;;;;;;12.70;6.60;;;21.60;93.70;;;;;;6201423;23;20655;-78
2024/04/08 11:20:41;;;;;;;6.30;5.10;;;21.50;93.30;;;;;;6175953;23;20388;-78
2024/04/08 11:23:14;;;;;;;15.33;5.10;;;21.30;93.30;;;;;;6178733;23;20356;-78
2024/04/08 11:25:41;;;;;;;9.23;5.57;;;21.40;93.60;;;;;;6180297;23;20421;-80
2024/04/08 11:28:09;;;;;;;6.40;5.37;;;21.50;93.60;;;;;;6191442;23;20433;-76
2024/04/08 11:30:37;;;;;;;7.80;5.63;;;21.80;93.20;;;;;;6205888;23;20385;-78
2024/04/08 11:33:04;;;;;;;9.67;6.13;;;22.10;91.90;;;;;;6205041;23;20354;-79
2024/04/08 11:35:31;;;;;;;10.60;6.87;;;22.30;90.90;;;;;;6230421;23;20341;-80
2024/04/08 11:38:00;;;;;;;10.83;7.20;;;22.50;88.80;;;;;;6180934;23;20390;-80
2024/04/08 11:40:28;;;;;;;8.30;5.40;;;22.50;86.70;;;;;;6211653;23;20644;-79
2024/04/08 11:42:56;;;;;;;7.20;5.53;;;22.50;87.30;;;;;;6239088;23;20367;-81
2024/04/08 11:45:22;;;;;;;7.47;6.20;;;22.50;86.30;;;;;;6213248;23;20376;-79
2024/04/08 11:47:48;;;;;;;7.37;5.70;;;22.40;83.70;;;;;;6209973;23;20416;-79
2024/04/08 11:50:22;;;;;;;5.37;4.47;;;22.20;84.80;;;;;;6238417;23;20374;-80
2024/04/08 11:52:48;;;;;;;6.00;5.40;;;22.20;84.90;;;;;;6215982;23;20377;-79
2024/04/08 11:55:14;;;;;;;7.17;5.40;;;22.30;83.50;;;;;;6212566;23;20432;-80
2024/04/08 11:57:40;;;;;;;6.10;4.20;;;22.20;83.00;;;;;;6214860;23;20181;-79
2024/04/08 12:00:07;;;;;;;12.47;5.40;;;22.20;83.80;;;;;;6215094;23;20142;-80
2024/04/08 12:02:39;;;;;;;9.57;5.40;;;22.20;82.30;;;;;;6241612;23;20457;-79
2024/04/08 12:05:07;;;;;;;8.27;4.50;;;22.40;81.80;;;;;;6213986;23;20403;-79
2024/04/08 12:07:33;;;;;;;8.50;4.50;;;22.40;80.40;;;;;;6212142;23;20420;-78
2024/04/08 12:09:58;;;;;;;7.70;4.87;;;22.30;80.70;;;;;;6210594;23;20464;-78
2024/04/08 12:12:24;;;;;;;6.83;4.10;;;22.20;81.00;;;;;;6237770;23;20142;-78
2024/04/08 12:14:52;;;;;;;7.63;4.80;;;22.30;81.00;;;;;;6184755;23;20376;-77
2024/04/08 12:17:19;;;;;;;5.90;3.80;;;22.40;80.10;;;;;;6187991;23;20170;-78
2024/04/08 12:19:48;;;;;;;6.03;3.30;;;22.40;79.90;;;;;;6211442;23;20373;-81
2024/04/08 12:22:14;;;;;;;12.90;4.30;;;22.50;80.20;;;;;;6191512;23;20369;-78
2024/04/08 12:24:40;;;;;;;4.93;3.77;;;22.70;79.00;;;;;;6215165;23;20373;-81
2024/04/08 12:27:07;;;;;;;7.17;4.67;;;22.70;79.50;;;;;;6240988;23;20421;-79
2024/04/08 12:29:33;;;;;;;8.50;4.10;;;23.00;77.60;;;;;;6215486;23;20369;-80
2024/04/08 12:31:59;;;;;;;6.90;4.10;;;23.20;76.50;;;;;;6122747;23;20393;-80
2024/04/08 12:34:29;;;;;;;6.47;4.30;;;23.40;75.80;;;;;;6097455;23;20152;-79
2024/04/08 12:36:59;;;;;;;5.17;3.90;;;23.60;74.20;;;;;;6097018;23;20503;-78
2024/04/08 12:39:25;;;;;;;8.80;4.23;;;23.80;73.00;;;;;;6098057;23;20416;-78